Monday, December 22, 2014, 2:43 AM EST
Back to Local

KPTW, Pottstown Limerick Airport

Location: Royersford, PA, United States Lat: 40.233
Local Time: 2:43 AM EST ( 7:43 GMT) Lon: -75.55
Time Zone: US/Eastern Elev: 291 ft

Show me the last for .
Show Decoded

2014-12-22 01:54 METAR KPTW 220654Z AUTO 00000KT 8SM OVC025 M05/M07 A3034 RMK AO2 SLP276
                 T10501067 =
2014-12-22 00:54 METAR KPTW 220554Z AUTO 00000KT 8SM BKN025 M06/M08 A3032 RMK AO2 SLP269
                 T10611078 11033 21061 58007 =
2014-12-22 00:30 METAR KPTW 220530Z AUTO 00000KT 8SM BKN026 M05/M07 A3033 RMK AO2 T10501072 =
2014-12-21 23:54 METAR KPTW 220454Z AUTO 00000KT 8SM SCT026 M06/M07 A3034 RMK AO2 SLP275
                 T10561072 400171056 =
2014-12-21 23:34 METAR KPTW 220434Z AUTO 00000KT 8SM BKN026 M05/M07 A3035 RMK AO2 T10501072 =
2014-12-21 22:54 METAR KPTW 220354Z AUTO 00000KT 9SM CLR M05/M07 A3035 RMK AO2 SLP279 T10501072 =
2014-12-21 21:54 METAR KPTW 220254Z AUTO 00000KT 10SM CLR M04/M07 A3034 RMK AO2 SLP275 T10441072
                 58001 =
2014-12-21 20:54 METAR KPTW 220154Z AUTO 00000KT 10SM CLR M04/M07 A3034 RMK AO2 SLP275 T10441072
                 =
2014-12-21 19:54 METAR KPTW 220054Z AUTO 00000KT 10SM CLR M04/M07 A3035 RMK AO2 SLP279 T10391067
                 =
2014-12-21 18:54 METAR KPTW 212354Z AUTO 00000KT 10SM CLR M03/M07 A3034 RMK AO2 SLP276 T10331067
                 10017 21033 51017 =
2014-12-21 17:54 METAR KPTW 212254Z AUTO 32003KT 10SM CLR M02/M07 A3034 RMK AO2 SLP275 T10171067
                 =
2014-12-21 16:54 METAR KPTW 212154Z AUTO 32003KT 10SM CLR M01/M06 A3031 RMK AO2 SLP265 T10061061
                 =
2014-12-21 15:54 METAR KPTW 212054Z AUTO 32004KT 10SM CLR 01/M06 A3029 RMK AO2 SLP258 T00061061
                 56008 =
2014-12-21 14:54 METAR KPTW 211954Z AUTO 30003KT 10SM CLR 01/M06 A3029 RMK AO2 SLP259 T00061061 =
2014-12-21 13:54 METAR KPTW 211854Z AUTO 33005KT 10SM SCT031 01/M06 A3031 RMK AO2 SLP263
                 T00111061 =
2014-12-21 12:54 METAR KPTW 211754Z AUTO 01009KT 10SM OVC030 02/M06 A3031 RMK AO2 SLP266
                 T00171056 10017 21022 58011 =
2014-12-21 12:39 METAR KPTW 211739Z AUTO VRB05KT 10SM OVC030 02/M06 A3032 RMK AO2 T00171056 =
2014-12-21 11:54 METAR KPTW 211654Z AUTO 01006KT 10SM OVC029 02/M05 A3033 RMK AO2 SLP270
                 T00171050 =
2014-12-21 10:54 METAR KPTW 211554Z AUTO 33008KT 10SM OVC029 01/M06 A3035 RMK AO2 SLP276
                 T00111061 =
2014-12-21 09:54 METAR KPTW 211454Z AUTO 31005KT 10SM OVC032 01/M05 A3035 RMK AO2 SLP277
                 T00061050 52012 =
2014-12-21 08:54 METAR KPTW 211354Z AUTO 00000KT 8SM OVC032 M01/M04 A3034 RMK AO2 SLP273
                 T10061044 =
2014-12-21 07:54 METAR KPTW 211254Z AUTO 00000KT 10SM OVC100 M02/M06 A3033 RMK AO2 SLP270
                 T10221056 =
2014-12-21 06:54 METAR KPTW 211154Z AUTO 00000KT 10SM FEW033 OVC110 M01/M06 A3031 RMK AO2 SLP265
                 T10111061 11006 21017 53007 =
2014-12-21 05:54 METAR KPTW 211054Z AUTO 00000KT 10SM OVC034 M02/M06 A3031 RMK AO2 SLP263
                 T10171056 =
2014-12-21 04:54 METAR KPTW 210954Z AUTO 00000KT 10SM OVC034 M02/M06 A3030 RMK AO2 SLP261
                 T10171061 =
2014-12-21 03:54 METAR KPTW 210854Z AUTO 00000KT 10SM BKN034 OVC110 M01/M06 A3029 RMK AO2 SLP258
                 T10111061 50002 =
2014-12-21 02:54 METAR KPTW 210754Z AUTO 00000KT 10SM OVC032 M01/M07 A3030 RMK AO2 SLP262
                 T10061067 =

Support USWX by starting your Amazon purchase here.